createdAt,value
2023-03-03T00:02:22.253Z,1.80
2023-03-03T00:04:58.537Z,1.85
2023-03-03T00:07:35.770Z,1.80
2023-03-03T00:10:11.811Z,1.70
2023-03-03T00:12:53.444Z,1.65
2023-03-03T00:15:30.824Z,1.92
2023-03-03T00:18:11.210Z,1.95
2023-03-03T00:20:52.789Z,2.03
2023-03-03T00:23:35.872Z,1.52
2023-03-03T00:26:25.676Z,1.88
2023-03-03T00:29:01.702Z,2.08
2023-03-03T00:31:40.229Z,1.90
2023-03-03T00:34:28.844Z,1.80
2023-03-03T00:37:05.100Z,1.90
2023-03-03T00:39:43.603Z,1.80
2023-03-03T00:42:19.799Z,2.00
2023-03-03T00:45:02.407Z,1.60
2023-03-03T00:47:42.644Z,1.70
2023-03-03T00:50:36.440Z,1.70
2023-03-03T00:53:15.789Z,1.88
2023-03-03T00:55:54.187Z,1.85
2023-03-03T00:58:31.360Z,1.90
2023-03-03T01:01:06.524Z,1.80
2023-03-03T01:03:51.328Z,1.77
2023-03-03T01:06:26.998Z,1.83
2023-03-03T01:09:02.707Z,1.80
2023-03-03T01:11:39.747Z,1.90
2023-03-03T01:14:16.036Z,1.75
2023-03-03T01:16:51.863Z,1.80
2023-03-03T01:19:27.885Z,1.77
2023-03-03T01:22:03.247Z,1.80
2023-03-03T01:24:38.608Z,1.77
2023-03-03T01:27:16.134Z,1.85
2023-03-03T01:29:52.899Z,1.98
2023-03-03T01:32:28.363Z,2.10
2023-03-03T01:35:03.863Z,1.80
2023-03-03T01:37:40.923Z,2.10
2023-03-03T01:40:21.949Z,2.08
2023-03-03T01:42:59.286Z,2.47
2023-03-03T01:45:37.930Z,2.40
2023-03-03T01:48:20.205Z,2.25
2023-03-03T01:51:00.972Z,2.75
2023-03-03T01:53:41.475Z,3.33
2023-03-03T01:56:17.858Z,3.47
2023-03-03T01:58:58.472Z,3.10
2023-03-03T02:01:36.303Z,3.65
2023-03-03T02:04:14.967Z,3.10
2023-03-03T02:06:54.696Z,3.30
2023-03-03T02:09:37.445Z,3.22
2023-03-03T02:12:15.680Z,3.13
2023-03-03T02:14:52.767Z,2.17
2023-03-03T02:17:29.040Z,2.00
2023-03-03T02:20:12.131Z,2.20
2023-03-03T02:22:53.053Z,1.70
2023-03-03T02:25:33.654Z,1.33
2023-03-03T02:28:11.676Z,1.50
2023-03-03T02:30:48.311Z,1.40
2023-03-03T02:33:24.291Z,1.10
2023-03-03T02:35:59.837Z,1.20
2023-03-03T02:38:40.874Z,1.50
2023-03-03T02:41:21.456Z,1.27
2023-03-03T02:44:03.745Z,1.10
2023-03-03T02:46:41.720Z,1.00
2023-03-03T02:49:21.501Z,1.08
2023-03-03T02:51:57.594Z,1.05
2023-03-03T02:54:34.845Z,1.10
2023-03-03T02:57:11.306Z,1.20
2023-03-03T02:59:48.678Z,1.38
2023-03-03T03:02:26.067Z,1.20
2023-03-03T03:05:02.958Z,1.30
2023-03-03T03:07:39.121Z,1.50
2023-03-03T03:10:16.458Z,1.58
2023-03-03T03:12:52.208Z,1.60
2023-03-03T03:15:29.461Z,1.30
2023-03-03T03:18:04.775Z,1.52
2023-03-03T03:20:43.604Z,1.50
2023-03-03T03:23:19.328Z,1.50
2023-03-03T03:25:55.300Z,1.65
2023-03-03T03:28:34.798Z,1.17
2023-03-03T03:31:13.907Z,1.40
2023-03-03T03:33:50.024Z,1.60
2023-03-03T03:36:26.874Z,1.45
2023-03-03T03:39:07.961Z,1.30
2023-03-03T03:41:47.054Z,1.50
2023-03-03T03:44:22.997Z,1.65
2023-03-03T03:47:00.268Z,1.83
2023-03-03T03:49:35.623Z,1.40
2023-03-03T03:52:12.339Z,1.67
2023-03-03T03:54:48.078Z,1.58
2023-03-03T03:57:24.510Z,1.50
2023-03-03T04:00:05.192Z,1.60
2023-03-03T04:02:50.842Z,1.60
2023-03-03T04:05:27.216Z,1.60
2023-03-03T04:08:04.151Z,1.30
2023-03-03T04:10:39.751Z,1.40
2023-03-03T04:13:15.294Z,1.30
2023-03-03T04:15:51.544Z,1.05
2023-03-03T04:18:29.151Z,0.90
2023-03-03T04:21:05.345Z,0.90
2023-03-03T04:23:42.069Z,1.00
2023-03-03T04:26:18.056Z,1.20
2023-03-03T04:28:56.923Z,1.13
2023-03-03T04:31:35.622Z,1.10
2023-03-03T04:34:14.835Z,1.30
2023-03-03T04:36:52.157Z,1.38
2023-03-03T04:39:28.845Z,1.10
2023-03-03T04:42:08.580Z,1.20
2023-03-03T04:44:44.215Z,1.00
2023-03-03T04:47:20.130Z,0.95
2023-03-03T04:49:57.725Z,1.00
2023-03-03T04:52:33.363Z,1.85
2023-03-03T04:55:11.451Z,1.80
2023-03-03T04:57:48.557Z,1.85
2023-03-03T05:00:25.057Z,1.70
2023-03-03T05:03:00.620Z,1.73
2023-03-03T05:05:38.790Z,1.50
2023-03-03T05:08:15.069Z,1.40
2023-03-03T05:10:54.027Z,1.08
2023-03-03T05:13:29.635Z,1.48
2023-03-03T05:16:05.195Z,1.60
2023-03-03T05:18:41.126Z,1.90
2023-03-03T05:21:18.509Z,1.58
2023-03-03T05:23:54.307Z,1.95
2023-03-03T05:26:30.393Z,1.73
2023-03-03T05:29:06.177Z,1.40
2023-03-03T05:31:43.357Z,1.40
2023-03-03T05:34:22.305Z,1.58
2023-03-03T05:36:59.868Z,1.38
2023-03-03T05:39:35.711Z,1.40
2023-03-03T05:42:11.621Z,1.50
2023-03-03T05:44:46.734Z,1.42
2023-03-03T05:47:22.158Z,1.50
2023-03-03T05:49:57.792Z,1.65
2023-03-03T05:52:35.735Z,1.65
2023-03-03T05:55:12.293Z,1.60
2023-03-03T05:57:48.245Z,1.58
2023-03-03T06:00:24.570Z,1.27
2023-03-03T06:02:59.959Z,1.45
2023-03-03T06:05:34.901Z,1.35
2023-03-03T06:08:12.386Z,1.40
2023-03-03T06:10:48.273Z,1.27
2023-03-03T06:13:24.462Z,1.48
2023-03-03T06:16:00.180Z,1.50
2023-03-03T06:18:35.169Z,1.50
2023-03-03T06:21:11.153Z,1.50
2023-03-03T06:23:48.242Z,1.60
2023-03-03T06:26:23.349Z,1.70
2023-03-03T06:28:59.201Z,1.45
2023-03-03T06:31:34.675Z,1.40
2023-03-03T06:34:09.792Z,1.50
2023-03-03T06:36:44.776Z,1.27
2023-03-03T06:39:22.303Z,1.70
2023-03-03T06:42:03.162Z,1.80
2023-03-03T06:44:42.853Z,1.50
2023-03-03T06:57:22.234Z,1.50
2023-03-03T06:59:59.556Z,1.33
2023-03-03T07:02:35.986Z,1.42
2023-03-03T07:05:18.714Z,1.73
2023-03-03T07:07:54.371Z,1.65
2023-03-03T07:10:35.351Z,1.60
2023-03-03T07:13:24.240Z,1.55
2023-03-03T07:16:01.156Z,1.80
2023-03-03T07:18:43.533Z,1.58
2023-03-03T07:21:23.906Z,1.50
2023-03-03T07:24:00.436Z,1.60
2023-03-03T07:26:37.879Z,1.30
2023-03-03T07:29:26.777Z,1.60
2023-03-03T07:32:06.132Z,1.85
2023-03-03T07:34:45.194Z,2.10
2023-03-03T07:37:31.305Z,1.70
2023-03-03T07:40:12.318Z,2.05
2023-03-03T07:42:49.387Z,2.10
2023-03-03T07:45:35.412Z,2.20
2023-03-03T07:48:21.580Z,2.17
2023-03-03T07:50:57.397Z,2.00
2023-03-03T07:53:36.399Z,2.40
2023-03-03T07:56:25.069Z,2.03
2023-03-03T07:59:02.853Z,2.67
2023-03-03T08:01:46.762Z,2.88
2023-03-03T08:04:29.043Z,3.08
2023-03-03T08:07:05.774Z,2.72
2023-03-03T08:09:49.177Z,2.70
2023-03-03T08:12:43.921Z,2.97
2023-03-03T08:15:35.443Z,3.00
2023-03-03T08:18:24.371Z,3.40
2023-03-03T08:21:03.943Z,3.38
2023-03-03T08:23:42.716Z,3.33
2023-03-03T08:26:18.976Z,3.90
2023-03-03T08:28:55.355Z,3.80
2023-03-03T08:31:41.223Z,3.80
2023-03-03T08:34:18.023Z,3.88
2023-03-03T08:36:53.851Z,6.60
2023-03-03T08:39:29.614Z,8.95
2023-03-03T08:42:05.153Z,10.77
2023-03-03T08:44:46.282Z,9.70
2023-03-03T08:47:33.253Z,5.57
2023-03-03T08:50:22.764Z,4.85
2023-03-03T08:52:58.977Z,2.83
2023-03-03T08:55:41.616Z,2.78
2023-03-03T08:58:17.836Z,3.00
2023-03-03T09:00:53.799Z,2.58
2023-03-03T09:03:31.594Z,2.60
2023-03-03T09:06:10.081Z,3.05
2023-03-03T09:08:45.668Z,2.80
2023-03-03T09:11:24.765Z,2.42
2023-03-03T09:14:10.733Z,2.92
2023-03-03T09:16:50.417Z,2.90
2023-03-03T09:19:36.062Z,2.45
2023-03-03T09:22:25.809Z,2.70
2023-03-03T09:25:03.697Z,2.58
2023-03-03T09:27:42.620Z,2.50
2023-03-03T09:30:41.072Z,2.65
2023-03-03T09:33:37.175Z,2.78
2023-03-03T09:36:26.282Z,2.70
2023-03-03T09:39:02.531Z,3.15
2023-03-03T09:42:21.955Z,2.90
2023-03-03T09:45:19.787Z,3.03
2023-03-03T09:48:21.975Z,2.90
2023-03-03T09:51:17.226Z,2.55
2023-03-03T09:54:02.668Z,3.00
2023-03-03T09:56:45.137Z,3.33
2023-03-03T09:59:37.541Z,3.22
2023-03-03T10:02:36.156Z,3.40
2023-03-03T10:05:38.852Z,3.88
2023-03-03T10:08:38.003Z,3.47
2023-03-03T10:11:24.365Z,3.05
2023-03-03T10:14:27.024Z,3.08
2023-03-03T10:17:25.760Z,3.20
2023-03-03T10:20:12.880Z,3.08
2023-03-03T10:22:56.422Z,3.00
2023-03-03T10:25:44.342Z,2.90
2023-03-03T10:28:37.461Z,2.97
2023-03-03T10:31:27.768Z,2.88
2023-03-03T10:34:18.048Z,2.83
2023-03-03T10:37:02.377Z,2.88
2023-03-03T10:40:04.868Z,3.00
2023-03-03T10:43:29.917Z,2.78
2023-03-03T10:46:34.011Z,2.40
2023-03-03T10:49:24.976Z,2.70
2023-03-03T10:52:32.099Z,2.72
2023-03-03T10:55:35.510Z,2.45
2023-03-03T10:58:23.810Z,2.40
2023-03-03T11:01:08.625Z,2.38
2023-03-03T11:04:15.140Z,2.28
2023-03-03T11:06:57.712Z,2.50
2023-03-03T11:09:46.473Z,2.40
2023-03-03T11:12:42.693Z,2.28
2023-03-03T11:15:46.008Z,2.40
2023-03-03T11:18:37.417Z,2.17
2023-03-03T11:21:20.708Z,2.40
2023-03-03T11:24:26.520Z,2.08
2023-03-03T11:27:25.600Z,1.98
2023-03-03T11:30:18.503Z,2.08
2023-03-03T11:32:58.301Z,2.20
2023-03-03T11:35:37.024Z,2.10
2023-03-03T11:38:43.672Z,2.10
2023-03-03T11:41:27.859Z,1.83
2023-03-03T11:44:09.935Z,1.98
2023-03-03T11:46:50.772Z,1.70
2023-03-03T11:49:33.637Z,1.60
2023-03-03T11:52:21.834Z,1.77
2023-03-03T11:55:05.041Z,1.90
2023-03-03T11:57:46.387Z,1.85
2023-03-03T12:00:35.138Z,1.80
2023-03-03T12:03:30.181Z,1.80
2023-03-03T12:06:21.912Z,1.90
2023-03-03T12:09:18.671Z,1.75
2023-03-03T12:12:02.500Z,1.90
2023-03-03T12:14:55.079Z,2.03
2023-03-03T12:17:56.046Z,2.00
2023-03-03T12:20:37.097Z,1.88
2023-03-03T12:23:31.743Z,2.30
2023-03-03T12:26:10.744Z,2.00
2023-03-03T12:28:54.633Z,2.13
2023-03-03T12:31:46.632Z,1.95
2023-03-03T12:34:29.241Z,2.05
2023-03-03T12:37:28.562Z,2.00
2023-03-03T12:40:14.151Z,2.08
2023-03-03T12:43:04.248Z,2.58
2023-03-03T12:45:55.183Z,2.30
2023-03-03T12:48:39.017Z,2.50
2023-03-03T12:51:25.118Z,2.00
2023-03-03T12:54:26.809Z,2.30
2023-03-03T12:57:05.448Z,2.30
2023-03-03T12:59:49.151Z,2.63
2023-03-03T13:02:46.333Z,2.13
2023-03-03T13:05:31.866Z,2.70
2023-03-03T13:08:23.900Z,2.53
2023-03-03T13:11:05.996Z,2.90
2023-03-03T13:13:48.472Z,2.83
2023-03-03T13:16:40.556Z,3.35
2023-03-03T13:19:26.031Z,2.97
2023-03-03T13:22:04.841Z,3.13
2023-03-03T13:24:46.520Z,3.10
2023-03-03T13:27:24.827Z,2.67
2023-03-03T13:30:06.572Z,2.80
2023-03-03T13:32:48.468Z,2.80
2023-03-03T13:35:45.556Z,2.40
2023-03-03T13:38:25.665Z,2.72
2023-03-03T13:41:12.052Z,2.90
2023-03-03T13:43:54.192Z,2.28
2023-03-03T13:46:39.167Z,2.40
2023-03-03T13:49:29.931Z,2.40
2023-03-03T13:52:11.820Z,2.00
2023-03-03T13:55:16.865Z,2.38
2023-03-03T13:58:02.083Z,2.13
2023-03-03T14:00:44.835Z,2.20
2023-03-03T14:03:46.593Z,1.90
2023-03-03T14:06:24.521Z,2.00
2023-03-03T14:09:19.448Z,1.67
2023-03-03T14:12:04.405Z,1.92
2023-03-03T14:14:52.497Z,1.98
2023-03-03T14:17:37.792Z,2.00
2023-03-03T14:20:28.505Z,2.00
2023-03-03T14:23:06.730Z,2.50
2023-03-03T14:28:46.998Z,1.75
2023-03-03T14:31:25.688Z,2.00
2023-03-03T14:34:05.929Z,2.03
2023-03-03T14:36:44.339Z,2.33
2023-03-03T14:39:39.130Z,1.63
2023-03-03T14:42:19.477Z,2.08
2023-03-03T14:45:01.538Z,2.00
2023-03-03T14:47:50.050Z,1.80
2023-03-03T14:50:39.337Z,1.75
2023-03-03T14:53:26.094Z,1.90
2023-03-03T14:56:18.236Z,1.85
2023-03-03T14:58:53.916Z,2.03
2023-03-03T15:01:39.110Z,1.75
2023-03-03T15:04:28.572Z,1.80
2023-03-03T15:07:04.322Z,1.90
2023-03-03T15:09:43.600Z,1.75
2023-03-03T15:12:27.617Z,1.70
2023-03-03T15:15:21.268Z,1.77
2023-03-03T15:18:07.088Z,1.58
2023-03-03T15:20:49.655Z,1.70
2023-03-03T15:23:41.132Z,1.60
2023-03-03T15:26:20.684Z,1.50
2023-03-03T15:29:08.768Z,1.60
2023-03-03T15:31:50.705Z,1.85
2023-03-03T15:34:42.472Z,1.67
2023-03-03T15:37:34.172Z,1.70
2023-03-03T15:40:21.283Z,1.75
2023-03-03T15:43:02.018Z,1.65
2023-03-03T15:45:44.268Z,1.50
2023-03-03T15:48:38.932Z,1.40
2023-03-03T15:51:28.993Z,1.67
2023-03-03T15:54:27.068Z,1.70
2023-03-03T15:57:04.397Z,1.48
2023-03-03T16:00:04.315Z,1.70
2023-03-03T16:02:55.661Z,1.70
2023-03-03T16:05:34.707Z,1.70
2023-03-03T16:08:21.132Z,1.50
2023-03-03T16:11:07.496Z,1.73
2023-03-03T16:14:01.001Z,1.50
2023-03-03T16:16:47.808Z,1.80
2023-03-03T16:19:34.990Z,1.40
2023-03-03T16:22:33.025Z,1.55
2023-03-03T16:25:28.178Z,1.70
2023-03-03T16:28:10.122Z,1.58
2023-03-03T16:30:57.339Z,1.80
2023-03-03T16:33:45.384Z,1.60
2023-03-03T16:36:33.843Z,1.55
2023-03-03T16:39:16.354Z,1.40
2023-03-03T16:42:00.988Z,1.50
2023-03-03T16:44:49.903Z,1.65
2023-03-03T16:47:34.000Z,1.52
2023-03-03T16:50:21.828Z,1.58
2023-03-03T16:53:05.948Z,1.45
2023-03-03T16:55:52.230Z,1.80
2023-03-03T16:58:44.144Z,1.90
2023-03-03T17:01:29.823Z,1.60
2023-03-03T17:04:07.510Z,1.52
2023-03-03T17:06:50.189Z,1.50
2023-03-03T17:09:46.614Z,1.60
2023-03-03T17:12:43.387Z,1.60
2023-03-03T17:15:35.710Z,1.83
2023-03-03T17:18:18.670Z,1.58
2023-03-03T17:20:56.780Z,1.70
2023-03-03T17:23:47.658Z,1.70
2023-03-03T17:26:52.954Z,2.65
2023-03-03T17:29:50.995Z,2.55
2023-03-03T17:32:46.382Z,2.80
2023-03-03T17:35:36.412Z,2.88
2023-03-03T17:38:23.176Z,2.90
2023-03-03T17:41:06.386Z,3.17
2023-03-03T17:43:50.199Z,3.35
2023-03-03T17:46:32.949Z,3.28
2023-03-03T17:49:41.287Z,3.40
2023-03-03T17:52:30.662Z,3.05
2023-03-03T17:55:36.365Z,2.92
2023-03-03T17:58:36.778Z,3.25
2023-03-03T18:01:25.255Z,3.00
2023-03-03T18:04:26.718Z,3.35
2023-03-03T18:07:32.670Z,4.18
2023-03-03T18:10:29.576Z,4.97
2023-03-03T18:13:13.614Z,3.30
2023-03-03T18:16:12.020Z,3.80
2023-03-03T18:19:12.640Z,3.40
2023-03-03T18:21:58.008Z,3.17
2023-03-03T18:24:42.338Z,3.60
2023-03-03T18:27:37.984Z,3.40
2023-03-03T18:30:30.836Z,3.60
2023-03-03T18:33:18.235Z,2.92
2023-03-03T18:35:54.215Z,3.20
2023-03-03T18:38:36.257Z,3.08
2023-03-03T18:41:16.358Z,3.30
2023-03-03T18:44:05.551Z,3.28
2023-03-03T18:46:57.538Z,3.25
2023-03-03T18:50:02.313Z,2.70
2023-03-03T18:52:38.839Z,2.80
2023-03-03T18:55:31.333Z,2.65
2023-03-03T18:58:37.701Z,2.88
2023-03-03T19:01:40.790Z,2.70
2023-03-03T19:04:39.651Z,2.95
2023-03-03T19:07:32.161Z,2.90
2023-03-03T19:10:10.458Z,2.72
2023-03-03T19:12:55.351Z,2.90
2023-03-03T19:15:59.356Z,2.88
2023-03-03T19:18:38.766Z,3.08
2023-03-03T19:21:26.122Z,3.33
2023-03-03T19:24:03.553Z,3.47
2023-03-03T19:27:00.204Z,3.08
2023-03-03T19:30:04.983Z,3.10
2023-03-03T19:33:01.682Z,3.10
2023-03-03T19:35:47.367Z,3.00
2023-03-03T19:38:35.031Z,2.70
2023-03-03T19:41:31.830Z,3.10
2023-03-03T19:44:17.056Z,3.15
2023-03-03T19:47:03.206Z,2.85
2023-03-03T19:49:58.382Z,2.75
2023-03-03T19:52:41.451Z,2.90
2023-03-03T19:55:29.825Z,3.05
2023-03-03T19:58:29.469Z,3.10
2023-03-03T20:01:18.175Z,3.00
2023-03-03T20:04:10.137Z,2.90
2023-03-03T20:06:55.439Z,2.92
2023-03-03T20:09:43.474Z,3.20
2023-03-03T20:12:31.372Z,2.78
2023-03-03T20:15:14.090Z,2.80
2023-03-03T20:18:19.643Z,3.03
2023-03-03T20:21:05.971Z,2.88
2023-03-03T20:23:51.161Z,2.70
2023-03-03T20:26:35.761Z,2.97
2023-03-03T20:29:44.881Z,2.85
2023-03-03T20:32:32.549Z,2.58
2023-03-03T20:35:20.137Z,2.70
2023-03-03T20:38:03.273Z,2.90
2023-03-03T20:40:47.058Z,2.70
2023-03-03T20:43:34.851Z,3.03
2023-03-03T20:46:18.204Z,2.80
2023-03-03T20:49:10.233Z,3.03
2023-03-03T20:51:49.870Z,2.80
2023-03-03T20:54:33.429Z,2.90
2023-03-03T20:57:17.005Z,2.60
2023-03-03T21:00:03.326Z,2.60
2023-03-03T21:02:44.533Z,2.25
2023-03-03T21:05:21.747Z,2.40
2023-03-03T21:07:59.498Z,2.78
2023-03-03T21:10:37.109Z,2.55
2023-03-03T21:13:38.750Z,2.40
2023-03-03T21:16:31.879Z,2.80
2023-03-03T21:19:08.247Z,2.53
2023-03-03T21:21:47.922Z,2.70
2023-03-03T21:24:23.359Z,3.22
2023-03-03T21:27:01.344Z,2.90
2023-03-03T21:29:38.330Z,2.80
2023-03-03T21:32:16.017Z,3.10
2023-03-03T21:34:51.696Z,3.00
2023-03-03T21:37:48.042Z,2.63
2023-03-03T21:40:26.839Z,2.90
2023-03-03T21:43:03.619Z,3.38
2023-03-03T21:45:40.062Z,3.10
2023-03-03T21:48:18.003Z,2.35
2023-03-03T21:50:53.457Z,2.10
2023-03-03T21:53:31.141Z,2.10
2023-03-03T21:56:07.228Z,1.90
2023-03-03T21:58:42.765Z,1.70
2023-03-03T22:01:22.223Z,1.65
2023-03-03T22:03:59.411Z,1.33
2023-03-03T22:06:35.102Z,2.47
2023-03-03T22:09:11.490Z,2.60
2023-03-03T22:11:46.771Z,2.33
2023-03-03T22:14:22.024Z,2.15
2023-03-03T22:16:58.742Z,10.00
2023-03-03T22:19:36.498Z,2.08
2023-03-03T22:22:11.872Z,5.88
2023-03-03T22:24:46.926Z,17.83
2023-03-03T22:27:22.903Z,3.33
2023-03-03T22:29:58.299Z,3.22
2023-03-03T22:32:38.032Z,2.50
2023-03-03T22:35:18.203Z,1.95
2023-03-03T22:37:54.265Z,9.40
2023-03-03T22:40:30.028Z,7.15
2023-03-03T22:43:05.258Z,5.10
2023-03-03T22:45:40.229Z,2.17
2023-03-03T22:48:16.823Z,3.17
2023-03-03T22:50:54.129Z,2.65
2023-03-03T22:53:29.332Z,1.08
2023-03-03T22:56:04.422Z,1.55
2023-03-03T22:58:40.204Z,1.20
2023-03-03T23:01:15.567Z,0.90
2023-03-03T23:03:54.846Z,0.85
2023-03-03T23:06:31.760Z,0.90
2023-03-03T23:09:07.705Z,1.00
2023-03-03T23:11:43.146Z,0.90
2023-03-03T23:14:18.620Z,1.17
2023-03-03T23:16:53.528Z,0.90
2023-03-03T23:19:29.697Z,0.95
2023-03-03T23:22:06.944Z,2.03
2023-03-03T23:24:42.121Z,1.00
2023-03-03T23:27:17.429Z,1.85
2023-03-03T23:29:53.905Z,1.30
2023-03-03T23:32:29.493Z,1.10
2023-03-03T23:35:05.797Z,1.08
2023-03-03T23:37:42.799Z,0.98
2023-03-03T23:40:19.851Z,1.05
2023-03-03T23:42:55.401Z,0.95
2023-03-03T23:45:30.421Z,1.30
2023-03-03T23:48:05.824Z,1.30
2023-03-03T23:50:44.754Z,0.98
2023-03-03T23:53:22.297Z,1.05
2023-03-03T23:55:57.372Z,1.00
2023-03-03T23:58:32.467Z,1.10
